sensor_id;sensor_type;location;lat;lon;timestamp;P1;durP1;ratioP1;P2;durP2;ratioP2
66298;SDS011;53098;47.658;8.578;2022-07-23T00:01:52;9.47;;;5.17;;
66298;SDS011;53098;47.658;8.578;2022-07-23T00:04:18;10.13;;;5.57;;
66298;SDS011;53098;47.658;8.578;2022-07-23T00:06:43;11.60;;;5.83;;
66298;SDS011;53098;47.658;8.578;2022-07-23T00:09:08;11.10;;;5.63;;
66298;SDS011;53098;47.658;8.578;2022-07-23T00:11:33;10.95;;;6.40;;
66298;SDS011;53098;47.658;8.578;2022-07-23T00:13:59;9.27;;;5.30;;
66298;SDS011;53098;47.658;8.578;2022-07-23T00:16:24;11.53;;;5.47;;
66298;SDS011;53098;47.658;8.578;2022-07-23T00:18:49;10.57;;;5.72;;
66298;SDS011;53098;47.658;8.578;2022-07-23T00:21:14;9.43;;;5.80;;
66298;SDS011;53098;47.658;8.578;2022-07-23T00:23:40;9.07;;;5.30;;
66298;SDS011;53098;47.658;8.578;2022-07-23T00:26:05;11.43;;;5.63;;
66298;SDS011;53098;47.658;8.578;2022-07-23T00:28:30;13.10;;;5.77;;
66298;SDS011;53098;47.658;8.578;2022-07-23T00:30:56;11.07;;;5.17;;
66298;SDS011;53098;47.658;8.578;2022-07-23T00:33:21;9.83;;;5.73;;
66298;SDS011;53098;47.658;8.578;2022-07-23T00:35:46;9.87;;;5.57;;
66298;SDS011;53098;47.658;8.578;2022-07-23T00:38:11;13.93;;;6.37;;
66298;SDS011;53098;47.658;8.578;2022-07-23T00:40:37;11.27;;;5.97;;
66298;SDS011;53098;47.658;8.578;2022-07-23T00:43:05;9.93;;;5.70;;
66298;SDS011;53098;47.658;8.578;2022-07-23T00:45:30;9.00;;;5.35;;
66298;SDS011;53098;47.658;8.578;2022-07-23T00:47:56;10.40;;;5.60;;
66298;SDS011;53098;47.658;8.578;2022-07-23T00:50:21;13.30;;;5.93;;
66298;SDS011;53098;47.658;8.578;2022-07-23T00:52:46;11.13;;;5.77;;
66298;SDS011;53098;47.658;8.578;2022-07-23T00:55:12;11.90;;;6.00;;
66298;SDS011;53098;47.658;8.578;2022-07-23T00:57:38;9.43;;;5.97;;
66298;SDS011;53098;47.658;8.578;2022-07-23T01:00:08;12.07;;;5.80;;
66298;SDS011;53098;47.658;8.578;2022-07-23T01:02:34;10.15;;;5.90;;
66298;SDS011;53098;47.658;8.578;2022-07-23T01:04:59;18.45;;;6.07;;
66298;SDS011;53098;47.658;8.578;2022-07-23T01:07:24;11.15;;;6.30;;
66298;SDS011;53098;47.658;8.578;2022-07-23T01:09:51;10.60;;;5.47;;
66298;SDS011;53098;47.658;8.578;2022-07-23T01:12:16;12.18;;;5.80;;
66298;SDS011;53098;47.658;8.578;2022-07-23T01:14:42;12.17;;;5.70;;
66298;SDS011;53098;47.658;8.578;2022-07-23T01:17:07;8.73;;;5.07;;
66298;SDS011;53098;47.658;8.578;2022-07-23T01:19:32;9.10;;;6.07;;
66298;SDS011;53098;47.658;8.578;2022-07-23T01:21:58;11.23;;;5.97;;
66298;SDS011;53098;47.658;8.578;2022-07-23T01:24:26;11.55;;;5.75;;
66298;SDS011;53098;47.658;8.578;2022-07-23T01:26:51;10.40;;;6.37;;
66298;SDS011;53098;47.658;8.578;2022-07-23T01:29:16;10.55;;;5.85;;
66298;SDS011;53098;47.658;8.578;2022-07-23T01:31:42;10.77;;;5.93;;
66298;SDS011;53098;47.658;8.578;2022-07-23T01:34:08;9.65;;;5.93;;
66298;SDS011;53098;47.658;8.578;2022-07-23T01:36:34;12.00;;;7.20;;
66298;SDS011;53098;47.658;8.578;2022-07-23T01:38:59;10.48;;;6.05;;
66298;SDS011;53098;47.658;8.578;2022-07-23T01:41:24;12.47;;;6.33;;
66298;SDS011;53098;47.658;8.578;2022-07-23T01:43:50;10.93;;;6.27;;
66298;SDS011;53098;47.658;8.578;2022-07-23T01:46:15;11.63;;;6.28;;
66298;SDS011;53098;47.658;8.578;2022-07-23T01:48:41;10.30;;;6.28;;
66298;SDS011;53098;47.658;8.578;2022-07-23T01:51:06;10.43;;;6.10;;
66298;SDS011;53098;47.658;8.578;2022-07-23T01:53:31;11.00;;;6.73;;
66298;SDS011;53098;47.658;8.578;2022-07-23T01:55:57;13.13;;;6.47;;
66298;SDS011;53098;47.658;8.578;2022-07-23T01:58:22;11.75;;;6.75;;
66298;SDS011;53098;47.658;8.578;2022-07-23T02:00:48;14.57;;;6.70;;
66298;SDS011;53098;47.658;8.578;2022-07-23T02:03:13;11.50;;;6.83;;
66298;SDS011;53098;47.658;8.578;2022-07-23T02:05:38;14.48;;;7.20;;
66298;SDS011;53098;47.658;8.578;2022-07-23T02:08:03;10.73;;;6.23;;
66298;SDS011;53098;47.658;8.578;2022-07-23T02:10:29;10.80;;;6.75;;
66298;SDS011;53098;47.658;8.578;2022-07-23T02:12:54;11.37;;;7.03;;
66298;SDS011;53098;47.658;8.578;2022-07-23T02:15:19;12.63;;;6.70;;
66298;SDS011;53098;47.658;8.578;2022-07-23T02:17:45;16.13;;;7.80;;
66298;SDS011;53098;47.658;8.578;2022-07-23T02:20:11;10.52;;;6.57;;
66298;SDS011;53098;47.658;8.578;2022-07-23T02:22:36;9.77;;;6.45;;
66298;SDS011;53098;47.658;8.578;2022-07-23T02:25:02;10.75;;;6.40;;
66298;SDS011;53098;47.658;8.578;2022-07-23T02:27:27;10.98;;;6.68;;
66298;SDS011;53098;47.658;8.578;2022-07-23T02:29:53;11.23;;;6.37;;
66298;SDS011;53098;47.658;8.578;2022-07-23T02:32:18;10.73;;;6.80;;
66298;SDS011;53098;47.658;8.578;2022-07-23T02:34:43;13.43;;;6.23;;
66298;SDS011;53098;47.658;8.578;2022-07-23T02:37:08;9.70;;;5.93;;
66298;SDS011;53098;47.658;8.578;2022-07-23T02:39:34;11.87;;;6.97;;
66298;SDS011;53098;47.658;8.578;2022-07-23T02:42:00;9.05;;;5.78;;
66298;SDS011;53098;47.658;8.578;2022-07-23T02:44:25;13.13;;;6.73;;
66298;SDS011;53098;47.658;8.578;2022-07-23T02:46:50;10.83;;;5.73;;
66298;SDS011;53098;47.658;8.578;2022-07-23T02:49:15;12.77;;;6.23;;
66298;SDS011;53098;47.658;8.578;2022-07-23T02:51:41;10.90;;;5.83;;
66298;SDS011;53098;47.658;8.578;2022-07-23T02:54:06;13.90;;;6.40;;
66298;SDS011;53098;47.658;8.578;2022-07-23T02:56:31;12.82;;;6.70;;
66298;SDS011;53098;47.658;8.578;2022-07-23T02:58:57;9.93;;;5.40;;
66298;SDS011;53098;47.658;8.578;2022-07-23T03:01:22;10.53;;;5.63;;
66298;SDS011;53098;47.658;8.578;2022-07-23T03:03:47;9.73;;;5.53;;
66298;SDS011;53098;47.658;8.578;2022-07-23T03:06:12;10.87;;;5.80;;
66298;SDS011;53098;47.658;8.578;2022-07-23T03:08:38;10.67;;;5.77;;
66298;SDS011;53098;47.658;8.578;2022-07-23T03:11:03;9.77;;;5.70;;
66298;SDS011;53098;47.658;8.578;2022-07-23T03:13:28;9.67;;;5.17;;
66298;SDS011;53098;47.658;8.578;2022-07-23T03:15:53;10.50;;;5.40;;
66298;SDS011;53098;47.658;8.578;2022-07-23T03:18:19;8.97;;;5.33;;
66298;SDS011;53098;47.658;8.578;2022-07-23T03:20:44;12.17;;;5.93;;
66298;SDS011;53098;47.658;8.578;2022-07-23T03:23:09;10.93;;;5.80;;
66298;SDS011;53098;47.658;8.578;2022-07-23T03:25:35;9.90;;;5.47;;
66298;SDS011;53098;47.658;8.578;2022-07-23T03:28:00;9.03;;;5.37;;
66298;SDS011;53098;47.658;8.578;2022-07-23T03:30:25;12.20;;;5.73;;
66298;SDS011;53098;47.658;8.578;2022-07-23T03:32:50;9.07;;;5.60;;
66298;SDS011;53098;47.658;8.578;2022-07-23T03:35:16;11.03;;;5.67;;
66298;SDS011;53098;47.658;8.578;2022-07-23T03:37:41;10.00;;;5.37;;
66298;SDS011;53098;47.658;8.578;2022-07-23T03:40:06;8.87;;;5.40;;
66298;SDS011;53098;47.658;8.578;2022-07-23T03:42:32;9.35;;;5.65;;
66298;SDS011;53098;47.658;8.578;2022-07-23T03:44:57;10.23;;;5.17;;
66298;SDS011;53098;47.658;8.578;2022-07-23T03:47:22;8.97;;;4.97;;
66298;SDS011;53098;47.658;8.578;2022-07-23T03:49:48;9.73;;;5.47;;
66298;SDS011;53098;47.658;8.578;2022-07-23T03:52:13;13.70;;;5.47;;
66298;SDS011;53098;47.658;8.578;2022-07-23T03:54:39;10.98;;;5.18;;
66298;SDS011;53098;47.658;8.578;2022-07-23T03:57:04;11.77;;;6.10;;
66298;SDS011;53098;47.658;8.578;2022-07-23T03:59:29;9.63;;;5.37;;
66298;SDS011;53098;47.658;8.578;2022-07-23T04:01:54;11.10;;;6.17;;
66298;SDS011;53098;47.658;8.578;2022-07-23T04:04:20;11.23;;;6.80;;
66298;SDS011;53098;47.658;8.578;2022-07-23T04:06:45;9.93;;;6.03;;
66298;SDS011;53098;47.658;8.578;2022-07-23T04:09:10;13.00;;;5.90;;
66298;SDS011;53098;47.658;8.578;2022-07-23T04:11:36;13.98;;;6.43;;
66298;SDS011;53098;47.658;8.578;2022-07-23T04:14:01;11.20;;;5.95;;
66298;SDS011;53098;47.658;8.578;2022-07-23T04:16:26;9.70;;;6.03;;
66298;SDS011;53098;47.658;8.578;2022-07-23T04:18:52;11.57;;;6.07;;
66298;SDS011;53098;47.658;8.578;2022-07-23T04:21:17;10.70;;;6.03;;
66298;SDS011;53098;47.658;8.578;2022-07-23T04:23:42;11.93;;;5.80;;
66298;SDS011;53098;47.658;8.578;2022-07-23T04:26:07;9.03;;;4.83;;
66298;SDS011;53098;47.658;8.578;2022-07-23T04:28:33;11.10;;;5.83;;
66298;SDS011;53098;47.658;8.578;2022-07-23T04:30:58;10.70;;;5.17;;
66298;SDS011;53098;47.658;8.578;2022-07-23T04:33:24;13.40;;;6.03;;
66298;SDS011;53098;47.658;8.578;2022-07-23T04:35:49;11.57;;;6.17;;
66298;SDS011;53098;47.658;8.578;2022-07-23T04:38:14;10.00;;;5.43;;
66298;SDS011;53098;47.658;8.578;2022-07-23T04:40:39;10.33;;;5.73;;
66298;SDS011;53098;47.658;8.578;2022-07-23T04:43:05;12.23;;;5.50;;
66298;SDS011;53098;47.658;8.578;2022-07-23T04:45:30;13.00;;;5.40;;
66298;SDS011;53098;47.658;8.578;2022-07-23T04:47:55;11.57;;;5.60;;
66298;SDS011;53098;47.658;8.578;2022-07-23T04:50:20;11.70;;;5.27;;
66298;SDS011;53098;47.658;8.578;2022-07-23T04:52:46;9.60;;;4.93;;
66298;SDS011;53098;47.658;8.578;2022-07-23T04:55:11;9.33;;;5.07;;
66298;SDS011;53098;47.658;8.578;2022-07-23T04:57:36;10.00;;;5.50;;
66298;SDS011;53098;47.658;8.578;2022-07-23T05:00:02;9.03;;;5.57;;
66298;SDS011;53098;47.658;8.578;2022-07-23T05:02:28;9.55;;;5.28;;
66298;SDS011;53098;47.658;8.578;2022-07-23T05:04:53;10.90;;;5.68;;
66298;SDS011;53098;47.658;8.578;2022-07-23T05:07:18;9.77;;;5.00;;
66298;SDS011;53098;47.658;8.578;2022-07-23T05:09:44;10.33;;;5.67;;
66298;SDS011;53098;47.658;8.578;2022-07-23T05:12:09;10.18;;;6.05;;
66298;SDS011;53098;47.658;8.578;2022-07-23T05:14:34;10.80;;;6.00;;
66298;SDS011;53098;47.658;8.578;2022-07-23T05:17:00;11.13;;;5.93;;
66298;SDS011;53098;47.658;8.578;2022-07-23T05:19:25;10.47;;;6.23;;
66298;SDS011;53098;47.658;8.578;2022-07-23T05:21:50;10.30;;;6.33;;
66298;SDS011;53098;47.658;8.578;2022-07-23T05:24:15;11.75;;;6.68;;
66298;SDS011;53098;47.658;8.578;2022-07-23T05:26:41;11.07;;;6.73;;
66298;SDS011;53098;47.658;8.578;2022-07-23T05:29:06;10.10;;;6.10;;
66298;SDS011;53098;47.658;8.578;2022-07-23T05:31:32;12.18;;;6.93;;
66298;SDS011;53098;47.658;8.578;2022-07-23T05:33:57;12.13;;;6.70;;
66298;SDS011;53098;47.658;8.578;2022-07-23T05:36:22;12.60;;;6.30;;
66298;SDS011;53098;47.658;8.578;2022-07-23T05:38:47;11.90;;;6.53;;
66298;SDS011;53098;47.658;8.578;2022-07-23T05:41:13;10.67;;;6.27;;
66298;SDS011;53098;47.658;8.578;2022-07-23T05:43:38;11.23;;;6.63;;
66298;SDS011;53098;47.658;8.578;2022-07-23T05:46:03;11.50;;;6.70;;
66298;SDS011;53098;47.658;8.578;2022-07-23T05:48:29;12.82;;;7.30;;
66298;SDS011;53098;47.658;8.578;2022-07-23T05:50:54;12.70;;;6.87;;
66298;SDS011;53098;47.658;8.578;2022-07-23T05:53:19;10.17;;;6.40;;
66298;SDS011;53098;47.658;8.578;2022-07-23T05:55:44;10.73;;;6.70;;
66298;SDS011;53098;47.658;8.578;2022-07-23T05:58:10;13.93;;;7.20;;
66298;SDS011;53098;47.658;8.578;2022-07-23T06:00:35;13.07;;;6.90;;
66298;SDS011;53098;47.658;8.578;2022-07-23T06:03:00;10.43;;;6.67;;
66298;SDS011;53098;47.658;8.578;2022-07-23T06:05:26;12.07;;;6.80;;
66298;SDS011;53098;47.658;8.578;2022-07-23T06:07:51;13.15;;;7.18;;
66298;SDS011;53098;47.658;8.578;2022-07-23T06:10:16;14.20;;;6.30;;
66298;SDS011;53098;47.658;8.578;2022-07-23T06:12:42;11.30;;;6.53;;
66298;SDS011;53098;47.658;8.578;2022-07-23T06:15:08;11.80;;;6.60;;
66298;SDS011;53098;47.658;8.578;2022-07-23T06:17:33;12.65;;;7.05;;
66298;SDS011;53098;47.658;8.578;2022-07-23T06:19:58;13.03;;;6.90;;
66298;SDS011;53098;47.658;8.578;2022-07-23T06:22:24;11.65;;;7.45;;
66298;SDS011;53098;47.658;8.578;2022-07-23T06:24:49;11.10;;;7.23;;
66298;SDS011;53098;47.658;8.578;2022-07-23T06:27:15;11.50;;;7.03;;
66298;SDS011;53098;47.658;8.578;2022-07-23T06:29:40;11.93;;;6.93;;
66298;SDS011;53098;47.658;8.578;2022-07-23T06:32:06;16.73;;;7.78;;
66298;SDS011;53098;47.658;8.578;2022-07-23T06:34:31;17.45;;;8.02;;
66298;SDS011;53098;47.658;8.578;2022-07-23T06:36:56;15.37;;;7.13;;
66298;SDS011;53098;47.658;8.578;2022-07-23T06:39:22;12.93;;;7.23;;
66298;SDS011;53098;47.658;8.578;2022-07-23T06:41:47;16.30;;;6.97;;
66298;SDS011;53098;47.658;8.578;2022-07-23T06:44:12;12.70;;;7.47;;
66298;SDS011;53098;47.658;8.578;2022-07-23T06:46:38;12.40;;;7.20;;
66298;SDS011;53098;47.658;8.578;2022-07-23T06:49:03;12.13;;;7.33;;
66298;SDS011;53098;47.658;8.578;2022-07-23T06:51:28;14.27;;;7.17;;
66298;SDS011;53098;47.658;8.578;2022-07-23T06:53:54;12.00;;;7.93;;
66298;SDS011;53098;47.658;8.578;2022-07-23T06:56:19;12.53;;;7.50;;
66298;SDS011;53098;47.658;8.578;2022-07-23T06:58:44;13.93;;;7.57;;
66298;SDS011;53098;47.658;8.578;2022-07-23T07:01:10;12.13;;;7.53;;
66298;SDS011;53098;47.658;8.578;2022-07-23T07:03:35;13.40;;;7.73;;
66298;SDS011;53098;47.658;8.578;2022-07-23T07:06:00;13.03;;;7.63;;
66298;SDS011;53098;47.658;8.578;2022-07-23T07:08:25;12.73;;;7.88;;
66298;SDS011;53098;47.658;8.578;2022-07-23T07:10:51;13.77;;;8.17;;
66298;SDS011;53098;47.658;8.578;2022-07-23T07:13:16;12.00;;;7.68;;
66298;SDS011;53098;47.658;8.578;2022-07-23T07:15:41;11.67;;;7.83;;
66298;SDS011;53098;47.658;8.578;2022-07-23T07:18:07;12.63;;;7.47;;
66298;SDS011;53098;47.658;8.578;2022-07-23T07:20:32;13.55;;;8.20;;
66298;SDS011;53098;47.658;8.578;2022-07-23T07:22:57;12.37;;;7.13;;
66298;SDS011;53098;47.658;8.578;2022-07-23T07:25:23;12.70;;;7.57;;
66298;SDS011;53098;47.658;8.578;2022-07-23T07:27:48;12.63;;;7.97;;
66298;SDS011;53098;47.658;8.578;2022-07-23T07:30:13;11.63;;;7.53;;
66298;SDS011;53098;47.658;8.578;2022-07-23T07:32:39;14.32;;;8.60;;
66298;SDS011;53098;47.658;8.578;2022-07-23T07:35:04;13.20;;;7.73;;
66298;SDS011;53098;47.658;8.578;2022-07-23T07:37:30;14.82;;;9.10;;
66298;SDS011;53098;47.658;8.578;2022-07-23T07:39:55;12.80;;;8.43;;
66298;SDS011;53098;47.658;8.578;2022-07-23T07:42:20;13.73;;;8.83;;
66298;SDS011;53098;47.658;8.578;2022-07-23T07:44:45;12.60;;;8.67;;
66298;SDS011;53098;47.658;8.578;2022-07-23T07:47:11;15.60;;;8.93;;
66298;SDS011;53098;47.658;8.578;2022-07-23T07:49:36;13.53;;;8.37;;
66298;SDS011;53098;47.658;8.578;2022-07-23T07:52:02;14.33;;;9.20;;
66298;SDS011;53098;47.658;8.578;2022-07-23T07:54:27;13.50;;;7.57;;
66298;SDS011;53098;47.658;8.578;2022-07-23T07:56:52;14.77;;;9.15;;
66298;SDS011;53098;47.658;8.578;2022-07-23T07:59:18;11.33;;;8.00;;
66298;SDS011;53098;47.658;8.578;2022-07-23T08:01:43;12.53;;;8.67;;
66298;SDS011;53098;47.658;8.578;2022-07-23T08:04:08;13.20;;;7.43;;
66298;SDS011;53098;47.658;8.578;2022-07-23T08:06:34;15.67;;;9.00;;
66298;SDS011;53098;47.658;8.578;2022-07-23T08:08:59;11.98;;;8.50;;
66298;SDS011;53098;47.658;8.578;2022-07-23T08:11:24;13.07;;;7.83;;
66298;SDS011;53098;47.658;8.578;2022-07-23T08:13:49;14.97;;;8.63;;
66298;SDS011;53098;47.658;8.578;2022-07-23T08:16:15;14.30;;;8.30;;
66298;SDS011;53098;47.658;8.578;2022-07-23T08:18:40;13.87;;;7.77;;
66298;SDS011;53098;47.658;8.578;2022-07-23T08:21:05;12.53;;;7.77;;
66298;SDS011;53098;47.658;8.578;2022-07-23T08:23:31;16.20;;;8.02;;
66298;SDS011;53098;47.658;8.578;2022-07-23T08:25:56;13.13;;;8.45;;
66298;SDS011;53098;47.658;8.578;2022-07-23T08:28:22;13.80;;;8.15;;
66298;SDS011;53098;47.658;8.578;2022-07-23T08:30:48;13.65;;;7.90;;
66298;SDS011;53098;47.658;8.578;2022-07-23T08:33:14;14.45;;;7.60;;
66298;SDS011;53098;47.658;8.578;2022-07-23T08:35:41;12.77;;;7.80;;
66298;SDS011;53098;47.658;8.578;2022-07-23T08:38:08;14.27;;;7.50;;
66298;SDS011;53098;47.658;8.578;2022-07-23T08:40:34;13.35;;;7.97;;
66298;SDS011;53098;47.658;8.578;2022-07-23T08:43:00;15.20;;;8.73;;
66298;SDS011;53098;47.658;8.578;2022-07-23T08:45:29;11.52;;;7.32;;
66298;SDS011;53098;47.658;8.578;2022-07-23T08:47:56;14.02;;;7.78;;
66298;SDS011;53098;47.658;8.578;2022-07-23T08:50:23;13.57;;;7.95;;
66298;SDS011;53098;47.658;8.578;2022-07-23T08:52:49;14.13;;;8.35;;
66298;SDS011;53098;47.658;8.578;2022-07-23T08:55:15;15.35;;;7.95;;
66298;SDS011;53098;47.658;8.578;2022-07-23T08:57:41;12.43;;;7.85;;
66298;SDS011;53098;47.658;8.578;2022-07-23T09:00:06;13.13;;;7.83;;
66298;SDS011;53098;47.658;8.578;2022-07-23T09:02:37;14.65;;;7.60;;
66298;SDS011;53098;47.658;8.578;2022-07-23T09:05:03;14.68;;;8.02;;
66298;SDS011;53098;47.658;8.578;2022-07-23T09:07:29;12.90;;;8.18;;
66298;SDS011;53098;47.658;8.578;2022-07-23T09:10:10;12.77;;;8.23;;
66298;SDS011;53098;47.658;8.578;2022-07-23T09:12:36;11.25;;;7.38;;
66298;SDS011;53098;47.658;8.578;2022-07-23T09:15:05;12.75;;;8.25;;
66298;SDS011;53098;47.658;8.578;2022-07-23T09:17:36;15.00;;;8.82;;
66298;SDS011;53098;47.658;8.578;2022-07-23T09:20:11;11.00;;;7.70;;
66298;SDS011;53098;47.658;8.578;2022-07-23T09:22:37;12.68;;;8.00;;
66298;SDS011;53098;47.658;8.578;2022-07-23T09:27:47;14.30;;;8.13;;
66298;SDS011;53098;47.658;8.578;2022-07-23T09:30:13;14.80;;;8.95;;
66298;SDS011;53098;47.658;8.578;2022-07-23T09:32:39;14.27;;;7.90;;
66298;SDS011;53098;47.658;8.578;2022-07-23T09:35:04;14.30;;;8.43;;
66298;SDS011;53098;47.658;8.578;2022-07-23T09:37:29;13.60;;;8.57;;
66298;SDS011;53098;47.658;8.578;2022-07-23T09:40:02;12.82;;;8.45;;
66298;SDS011;53098;47.658;8.578;2022-07-23T09:42:28;12.27;;;7.72;;
66298;SDS011;53098;47.658;8.578;2022-07-23T09:44:54;11.07;;;7.23;;
66298;SDS011;53098;47.658;8.578;2022-07-23T09:47:20;13.63;;;7.55;;
66298;SDS011;53098;47.658;8.578;2022-07-23T09:52:31;12.65;;;7.63;;
66298;SDS011;53098;47.658;8.578;2022-07-23T09:55:02;10.82;;;7.35;;
66298;SDS011;53098;47.658;8.578;2022-07-23T09:57:28;12.35;;;7.60;;
66298;SDS011;53098;47.658;8.578;2022-07-23T09:59:54;12.63;;;7.65;;
66298;SDS011;53098;47.658;8.578;2022-07-23T10:02:22;11.73;;;7.30;;
66298;SDS011;53098;47.658;8.578;2022-07-23T10:04:47;13.85;;;6.57;;
66298;SDS011;53098;47.658;8.578;2022-07-23T10:07:12;13.75;;;7.75;;
66298;SDS011;53098;47.658;8.578;2022-07-23T10:09:39;10.73;;;7.10;;
66298;SDS011;53098;47.658;8.578;2022-07-23T10:12:09;11.45;;;7.05;;
66298;SDS011;53098;47.658;8.578;2022-07-23T10:14:34;11.27;;;7.32;;
66298;SDS011;53098;47.658;8.578;2022-07-23T10:17:03;10.70;;;7.23;;
66298;SDS011;53098;47.658;8.578;2022-07-23T10:19:28;12.77;;;7.38;;
66298;SDS011;53098;47.658;8.578;2022-07-23T10:21:58;11.63;;;7.30;;
66298;SDS011;53098;47.658;8.578;2022-07-23T10:29:33;12.23;;;6.80;;
66298;SDS011;53098;47.658;8.578;2022-07-23T10:32:08;10.77;;;6.70;;
66298;SDS011;53098;47.658;8.578;2022-07-23T10:39:34;14.40;;;7.00;;
66298;SDS011;53098;47.658;8.578;2022-07-23T10:42:09;13.40;;;7.45;;
66298;SDS011;53098;47.658;8.578;2022-07-23T10:44:53;13.40;;;7.32;;
66298;SDS011;53098;47.658;8.578;2022-07-23T10:47:25;13.13;;;7.03;;
66298;SDS011;53098;47.658;8.578;2022-07-23T10:49:52;13.40;;;7.75;;
66298;SDS011;53098;47.658;8.578;2022-07-23T10:52:21;12.32;;;7.50;;
66298;SDS011;53098;47.658;8.578;2022-07-23T10:54:56;13.13;;;7.55;;
66298;SDS011;53098;47.658;8.578;2022-07-23T10:57:23;13.05;;;7.93;;
66298;SDS011;53098;47.658;8.578;2022-07-23T11:02:26;12.90;;;7.85;;
66298;SDS011;53098;47.658;8.578;2022-07-23T11:04:59;13.25;;;7.43;;
66298;SDS011;53098;47.658;8.578;2022-07-23T11:07:25;12.75;;;7.45;;
66298;SDS011;53098;47.658;8.578;2022-07-23T11:09:50;11.73;;;8.13;;
66298;SDS011;53098;47.658;8.578;2022-07-23T11:17:28;11.82;;;7.68;;
66298;SDS011;53098;47.658;8.578;2022-07-23T11:22:39;14.00;;;8.15;;
66298;SDS011;53098;47.658;8.578;2022-07-23T11:25:05;11.25;;;7.55;;
66298;SDS011;53098;47.658;8.578;2022-07-23T11:27:44;11.05;;;6.88;;
66298;SDS011;53098;47.658;8.578;2022-07-23T11:35:27;11.70;;;7.22;;
66298;SDS011;53098;47.658;8.578;2022-07-23T11:37:53;13.15;;;7.78;;
66298;SDS011;53098;47.658;8.578;2022-07-23T11:40:18;10.70;;;6.95;;
66298;SDS011;53098;47.658;8.578;2022-07-23T11:42:53;13.83;;;7.13;;
66298;SDS011;53098;47.658;8.578;2022-07-23T11:45:19;14.07;;;8.55;;
66298;SDS011;53098;47.658;8.578;2022-07-23T11:47:44;12.63;;;7.68;;
66298;SDS011;53098;47.658;8.578;2022-07-23T11:50:10;11.97;;;7.17;;
66298;SDS011;53098;47.658;8.578;2022-07-23T11:52:35;12.57;;;7.15;;
66298;SDS011;53098;47.658;8.578;2022-07-23T11:55:05;13.15;;;7.57;;
66298;SDS011;53098;47.658;8.578;2022-07-23T11:57:32;11.30;;;7.20;;
66298;SDS011;53098;47.658;8.578;2022-07-23T12:00:01;13.68;;;7.65;;
66298;SDS011;53098;47.658;8.578;2022-07-23T12:02:27;17.42;;;7.80;;
66298;SDS011;53098;47.658;8.578;2022-07-23T12:04:53;12.57;;;8.10;;
66298;SDS011;53098;47.658;8.578;2022-07-23T12:12:27;12.20;;;8.00;;
66298;SDS011;53098;47.658;8.578;2022-07-23T12:14:56;13.27;;;7.23;;
66298;SDS011;53098;47.658;8.578;2022-07-23T12:17:26;10.63;;;7.60;;
66298;SDS011;53098;47.658;8.578;2022-07-23T12:19:52;12.70;;;7.15;;
66298;SDS011;53098;47.658;8.578;2022-07-23T12:22:17;11.40;;;7.38;;
66298;SDS011;53098;47.658;8.578;2022-07-23T12:27:38;11.88;;;6.85;;
66298;SDS011;53098;47.658;8.578;2022-07-23T12:30:16;11.45;;;7.18;;
66298;SDS011;53098;47.658;8.578;2022-07-23T12:32:45;12.20;;;7.60;;
66298;SDS011;53098;47.658;8.578;2022-07-23T12:35:11;11.80;;;7.03;;
66298;SDS011;53098;47.658;8.578;2022-07-23T12:37:41;13.70;;;7.73;;
66298;SDS011;53098;47.658;8.578;2022-07-23T12:42:43;12.98;;;7.63;;
66298;SDS011;53098;47.658;8.578;2022-07-23T12:45:10;14.32;;;7.55;;
66298;SDS011;53098;47.658;8.578;2022-07-23T12:47:51;13.63;;;7.53;;
66298;SDS011;53098;47.658;8.578;2022-07-23T12:50:36;11.38;;;7.53;;
66298;SDS011;53098;47.658;8.578;2022-07-23T12:53:06;14.70;;;7.93;;
66298;SDS011;53098;47.658;8.578;2022-07-23T12:55:31;11.43;;;7.55;;
66298;SDS011;53098;47.658;8.578;2022-07-23T12:58:04;12.80;;;7.63;;
66298;SDS011;53098;47.658;8.578;2022-07-23T13:00:29;12.10;;;7.60;;
66298;SDS011;53098;47.658;8.578;2022-07-23T13:02:54;10.70;;;7.63;;
66298;SDS011;53098;47.658;8.578;2022-07-23T13:05:20;13.20;;;7.90;;
66298;SDS011;53098;47.658;8.578;2022-07-23T13:07:45;11.27;;;7.70;;
66298;SDS011;53098;47.658;8.578;2022-07-23T13:10:10;12.63;;;7.37;;
66298;SDS011;53098;47.658;8.578;2022-07-23T13:12:35;12.53;;;7.27;;
66298;SDS011;53098;47.658;8.578;2022-07-23T13:15:01;12.43;;;7.80;;
66298;SDS011;53098;47.658;8.578;2022-07-23T13:17:26;12.87;;;7.53;;
66298;SDS011;53098;47.658;8.578;2022-07-23T13:19:51;12.67;;;7.40;;
66298;SDS011;53098;47.658;8.578;2022-07-23T13:22:16;14.90;;;8.17;;
66298;SDS011;53098;47.658;8.578;2022-07-23T13:24:42;17.57;;;7.67;;
66298;SDS011;53098;47.658;8.578;2022-07-23T13:27:07;12.07;;;6.95;;
66298;SDS011;53098;47.658;8.578;2022-07-23T13:29:33;10.80;;;7.37;;
66298;SDS011;53098;47.658;8.578;2022-07-23T13:31:58;11.57;;;7.50;;
66298;SDS011;53098;47.658;8.578;2022-07-23T13:34:23;11.83;;;7.17;;
66298;SDS011;53098;47.658;8.578;2022-07-23T13:36:49;11.50;;;7.82;;
66298;SDS011;53098;47.658;8.578;2022-07-23T13:39:14;11.13;;;7.33;;
66298;SDS011;53098;47.658;8.578;2022-07-23T13:41:39;15.13;;;7.60;;
66298;SDS011;53098;47.658;8.578;2022-07-23T13:44:04;13.07;;;8.07;;
66298;SDS011;53098;47.658;8.578;2022-07-23T13:46:30;10.67;;;7.47;;
66298;SDS011;53098;47.658;8.578;2022-07-23T13:48:55;11.52;;;7.57;;
66298;SDS011;53098;47.658;8.578;2022-07-23T13:51:20;12.97;;;7.47;;
66298;SDS011;53098;47.658;8.578;2022-07-23T13:53:46;11.23;;;7.30;;
66298;SDS011;53098;47.658;8.578;2022-07-23T13:56:11;12.15;;;7.18;;
66298;SDS011;53098;47.658;8.578;2022-07-23T13:58:36;12.10;;;7.47;;
66298;SDS011;53098;47.658;8.578;2022-07-23T14:01:02;10.83;;;7.20;;
66298;SDS011;53098;47.658;8.578;2022-07-23T14:03:27;12.70;;;6.88;;
66298;SDS011;53098;47.658;8.578;2022-07-23T14:05:52;11.30;;;7.47;;
66298;SDS011;53098;47.658;8.578;2022-07-23T14:08:18;12.33;;;7.93;;
66298;SDS011;53098;47.658;8.578;2022-07-23T14:10:43;14.73;;;8.05;;
66298;SDS011;53098;47.658;8.578;2022-07-23T14:13:09;11.27;;;7.37;;
66298;SDS011;53098;47.658;8.578;2022-07-23T14:15:34;11.40;;;7.13;;
66298;SDS011;53098;47.658;8.578;2022-07-23T14:17:59;12.17;;;7.50;;
66298;SDS011;53098;47.658;8.578;2022-07-23T14:20:25;11.93;;;7.45;;
66298;SDS011;53098;47.658;8.578;2022-07-23T14:22:50;10.57;;;7.20;;
66298;SDS011;53098;47.658;8.578;2022-07-23T14:25:16;12.13;;;8.10;;
66298;SDS011;53098;47.658;8.578;2022-07-23T14:27:41;13.32;;;8.10;;
66298;SDS011;53098;47.658;8.578;2022-07-23T14:30:07;11.43;;;7.65;;
66298;SDS011;53098;47.658;8.578;2022-07-23T14:32:32;11.85;;;7.80;;
66298;SDS011;53098;47.658;8.578;2022-07-23T14:34:58;12.43;;;7.53;;
66298;SDS011;53098;47.658;8.578;2022-07-23T14:37:23;11.83;;;7.30;;
66298;SDS011;53098;47.658;8.578;2022-07-23T14:39:48;13.40;;;7.80;;
66298;SDS011;53098;47.658;8.578;2022-07-23T14:42:14;10.70;;;7.30;;
66298;SDS011;53098;47.658;8.578;2022-07-23T14:44:39;10.17;;;7.03;;
66298;SDS011;53098;47.658;8.578;2022-07-23T14:47:05;14.03;;;7.97;;
66298;SDS011;53098;47.658;8.578;2022-07-23T14:49:31;13.45;;;8.02;;
66298;SDS011;53098;47.658;8.578;2022-07-23T14:51:56;12.43;;;7.05;;
66298;SDS011;53098;47.658;8.578;2022-07-23T14:54:22;11.88;;;7.43;;
66298;SDS011;53098;47.658;8.578;2022-07-23T14:56:47;10.32;;;7.05;;
66298;SDS011;53098;47.658;8.578;2022-07-23T14:59:13;12.43;;;7.50;;
66298;SDS011;53098;47.658;8.578;2022-07-23T15:01:38;11.73;;;7.65;;
66298;SDS011;53098;47.658;8.578;2022-07-23T15:04:04;9.90;;;6.82;;
66298;SDS011;53098;47.658;8.578;2022-07-23T15:06:30;11.57;;;7.68;;
66298;SDS011;53098;47.658;8.578;2022-07-23T15:08:55;10.75;;;7.40;;
66298;SDS011;53098;47.658;8.578;2022-07-23T15:11:20;12.30;;;7.43;;